sensor_id;sensor_type;location;lat;lon;timestamp;temperature;humidity
17948;DHT22;9099;47.958;11.366;2023-07-16T00:00:40;23.10;99.90
17948;DHT22;9099;47.958;11.366;2023-07-16T00:03:06;23.10;99.90
17948;DHT22;9099;47.958;11.366;2023-07-16T00:05:34;23.10;99.90
17948;DHT22;9099;47.958;11.366;2023-07-16T00:08:02;23.10;99.90
17948;DHT22;9099;47.958;11.366;2023-07-16T00:10:34;23.00;99.90
17948;DHT22;9099;47.958;11.366;2023-07-16T00:13:01;22.90;99.90
17948;DHT22;9099;47.958;11.366;2023-07-16T00:15:28;22.80;99.90
17948;DHT22;9099;47.958;11.366;2023-07-16T00:17:55;22.90;99.90
17948;DHT22;9099;47.958;11.366;2023-07-16T00:20:22;22.80;99.90
17948;DHT22;9099;47.958;11.366;2023-07-16T00:22:49;22.80;99.90
17948;DHT22;9099;47.958;11.366;2023-07-16T00:25:16;22.80;99.90
17948;DHT22;9099;47.958;11.366;2023-07-16T00:27:44;22.90;99.90
17948;DHT22;9099;47.958;11.366;2023-07-16T00:30:11;22.80;99.90
17948;DHT22;9099;47.958;11.366;2023-07-16T00:32:38;22.70;99.90
17948;DHT22;9099;47.958;11.366;2023-07-16T00:35:06;22.70;99.90
17948;DHT22;9099;47.958;11.366;2023-07-16T00:37:34;22.60;99.90
17948;DHT22;9099;47.958;11.366;2023-07-16T00:40:02;22.60;99.90
17948;DHT22;9099;47.958;11.366;2023-07-16T00:42:29;22.50;99.90
17948;DHT22;9099;47.958;11.366;2023-07-16T00:44:57;22.50;99.90
17948;DHT22;9099;47.958;11.366;2023-07-16T00:47:24;22.50;99.90
17948;DHT22;9099;47.958;11.366;2023-07-16T00:49:51;22.40;99.90
17948;DHT22;9099;47.958;11.366;2023-07-16T00:52:21;22.50;99.90
17948;DHT22;9099;47.958;11.366;2023-07-16T00:54:48;22.50;99.90
17948;DHT22;9099;47.958;11.366;2023-07-16T00:57:16;22.40;99.90
17948;DHT22;9099;47.958;11.366;2023-07-16T00:59:43;22.40;99.90
17948;DHT22;9099;47.958;11.366;2023-07-16T01:02:11;22.40;99.90
17948;DHT22;9099;47.958;11.366;2023-07-16T01:04:38;22.40;99.90
17948;DHT22;9099;47.958;11.366;2023-07-16T01:07:06;22.30;99.90
17948;DHT22;9099;47.958;11.366;2023-07-16T01:09:36;22.20;99.90
17948;DHT22;9099;47.958;11.366;2023-07-16T01:12:05;22.20;99.90
17948;DHT22;9099;47.958;11.366;2023-07-16T01:14:33;22.20;99.90
17948;DHT22;9099;47.958;11.366;2023-07-16T01:17:03;22.10;99.90
17948;DHT22;9099;47.958;11.366;2023-07-16T01:19:31;22.10;99.90
17948;DHT22;9099;47.958;11.366;2023-07-16T01:22:09;22.10;99.90
17948;DHT22;9099;47.958;11.366;2023-07-16T01:25:01;22.10;99.90
17948;DHT22;9099;47.958;11.366;2023-07-16T01:27:50;22.10;99.90
17948;DHT22;9099;47.958;11.366;2023-07-16T01:30:20;22.10;99.90
17948;DHT22;9099;47.958;11.366;2023-07-16T01:32:48;22.10;99.90
17948;DHT22;9099;47.958;11.366;2023-07-16T01:35:16;22.10;99.90
17948;DHT22;9099;47.958;11.366;2023-07-16T01:37:43;22.20;99.90
17948;DHT22;9099;47.958;11.366;2023-07-16T01:40:11;22.20;99.90
17948;DHT22;9099;47.958;11.366;2023-07-16T01:42:37;22.20;99.90
17948;DHT22;9099;47.958;11.366;2023-07-16T01:45:05;22.30;99.90
17948;DHT22;9099;47.958;11.366;2023-07-16T01:47:40;22.30;99.90
17948;DHT22;9099;47.958;11.366;2023-07-16T01:50:12;22.40;99.90
17948;DHT22;9099;47.958;11.366;2023-07-16T01:52:38;22.40;99.90
17948;DHT22;9099;47.958;11.366;2023-07-16T01:55:06;22.40;99.90
17948;DHT22;9099;47.958;11.366;2023-07-16T01:57:33;22.40;99.90
17948;DHT22;9099;47.958;11.366;2023-07-16T02:00:00;22.40;99.90
17948;DHT22;9099;47.958;11.366;2023-07-16T02:02:26;22.40;99.90
17948;DHT22;9099;47.958;11.366;2023-07-16T02:04:54;22.50;99.90
17948;DHT22;9099;47.958;11.366;2023-07-16T02:07:21;22.50;99.90
17948;DHT22;9099;47.958;11.366;2023-07-16T02:09:50;22.60;99.90
17948;DHT22;9099;47.958;11.366;2023-07-16T02:12:16;22.60;99.90
17948;DHT22;9099;47.958;11.366;2023-07-16T02:14:43;22.60;99.90
17948;DHT22;9099;47.958;11.366;2023-07-16T02:17:10;22.70;99.90
17948;DHT22;9099;47.958;11.366;2023-07-16T02:19:37;22.70;99.90
17948;DHT22;9099;47.958;11.366;2023-07-16T02:22:05;22.70;99.90
17948;DHT22;9099;47.958;11.366;2023-07-16T02:24:32;22.60;99.90
17948;DHT22;9099;47.958;11.366;2023-07-16T02:26:59;22.60;99.90
17948;DHT22;9099;47.958;11.366;2023-07-16T02:29:26;22.60;99.90
17948;DHT22;9099;47.958;11.366;2023-07-16T02:31:53;22.60;99.90
17948;DHT22;9099;47.958;11.366;2023-07-16T02:34:19;22.60;99.90
17948;DHT22;9099;47.958;11.366;2023-07-16T02:36:46;22.60;99.90
17948;DHT22;9099;47.958;11.366;2023-07-16T02:39:14;22.60;99.90
17948;DHT22;9099;47.958;11.366;2023-07-16T02:41:41;22.50;99.90
17948;DHT22;9099;47.958;11.366;2023-07-16T02:44:08;22.60;99.90
17948;DHT22;9099;47.958;11.366;2023-07-16T02:46:35;22.60;99.90
17948;DHT22;9099;47.958;11.366;2023-07-16T02:49:03;22.60;99.90
17948;DHT22;9099;47.958;11.366;2023-07-16T02:51:30;22.60;99.90
17948;DHT22;9099;47.958;11.366;2023-07-16T02:53:57;22.50;99.90
17948;DHT22;9099;47.958;11.366;2023-07-16T02:56:25;22.50;99.90
17948;DHT22;9099;47.958;11.366;2023-07-16T02:58:52;22.50;99.90
17948;DHT22;9099;47.958;11.366;2023-07-16T03:01:18;22.50;99.90
17948;DHT22;9099;47.958;11.366;2023-07-16T03:03:45;22.60;99.90
17948;DHT22;9099;47.958;11.366;2023-07-16T03:06:12;22.60;99.90
17948;DHT22;9099;47.958;11.366;2023-07-16T03:08:39;22.70;99.90
17948;DHT22;9099;47.958;11.366;2023-07-16T03:11:06;22.70;99.90
17948;DHT22;9099;47.958;11.366;2023-07-16T03:13:34;22.70;99.90
17948;DHT22;9099;47.958;11.366;2023-07-16T03:16:01;22.80;99.90
17948;DHT22;9099;47.958;11.366;2023-07-16T03:18:28;22.80;99.90
17948;DHT22;9099;47.958;11.366;2023-07-16T03:20:55;22.80;99.90
17948;DHT22;9099;47.958;11.366;2023-07-16T03:23:23;22.80;99.90
17948;DHT22;9099;47.958;11.366;2023-07-16T03:25:49;22.80;99.90
17948;DHT22;9099;47.958;11.366;2023-07-16T03:28:16;22.70;99.90
17948;DHT22;9099;47.958;11.366;2023-07-16T03:30:47;22.80;99.90
17948;DHT22;9099;47.958;11.366;2023-07-16T03:33:14;22.80;99.90
17948;DHT22;9099;47.958;11.366;2023-07-16T03:35:42;22.70;99.90
17948;DHT22;9099;47.958;11.366;2023-07-16T03:38:09;22.80;99.90
17948;DHT22;9099;47.958;11.366;2023-07-16T03:40:36;22.80;99.90
17948;DHT22;9099;47.958;11.366;2023-07-16T03:43:03;22.70;99.90
17948;DHT22;9099;47.958;11.366;2023-07-16T03:45:31;22.70;99.90
17948;DHT22;9099;47.958;11.366;2023-07-16T03:47:59;22.70;99.90
17948;DHT22;9099;47.958;11.366;2023-07-16T03:50:26;22.60;99.90
17948;DHT22;9099;47.958;11.366;2023-07-16T03:52:53;22.50;99.90
17948;DHT22;9099;47.958;11.366;2023-07-16T03:55:19;22.30;99.90
17948;DHT22;9099;47.958;11.366;2023-07-16T03:57:47;22.10;99.90
17948;DHT22;9099;47.958;11.366;2023-07-16T04:00:14;22.00;99.90
17948;DHT22;9099;47.958;11.366;2023-07-16T04:02:40;21.80;99.90
17948;DHT22;9099;47.958;11.366;2023-07-16T04:05:09;21.70;99.90
17948;DHT22;9099;47.958;11.366;2023-07-16T04:07:36;21.70;99.90
17948;DHT22;9099;47.958;11.366;2023-07-16T04:10:04;21.60;99.90
17948;DHT22;9099;47.958;11.366;2023-07-16T04:12:31;21.40;99.90
17948;DHT22;9099;47.958;11.366;2023-07-16T04:14:58;21.20;99.90
17948;DHT22;9099;47.958;11.366;2023-07-16T04:17:25;21.10;99.90
17948;DHT22;9099;47.958;11.366;2023-07-16T04:19:52;21.10;99.90
17948;DHT22;9099;47.958;11.366;2023-07-16T04:22:21;21.00;99.90
17948;DHT22;9099;47.958;11.366;2023-07-16T04:24:47;21.00;99.90
17948;DHT22;9099;47.958;11.366;2023-07-16T04:27:14;20.90;99.90
17948;DHT22;9099;47.958;11.366;2023-07-16T04:29:41;20.90;99.90
17948;DHT22;9099;47.958;11.366;2023-07-16T04:32:08;20.90;99.90
17948;DHT22;9099;47.958;11.366;2023-07-16T04:34:35;20.90;99.90
17948;DHT22;9099;47.958;11.366;2023-07-16T04:37:02;20.90;99.90
17948;DHT22;9099;47.958;11.366;2023-07-16T04:39:30;20.80;99.90
17948;DHT22;9099;47.958;11.366;2023-07-16T04:41:57;20.90;99.90
17948;DHT22;9099;47.958;11.366;2023-07-16T04:44:23;20.90;99.90
17948;DHT22;9099;47.958;11.366;2023-07-16T04:46:50;20.90;99.90
17948;DHT22;9099;47.958;11.366;2023-07-16T04:49:17;21.00;99.90
17948;DHT22;9099;47.958;11.366;2023-07-16T04:51:44;20.90;99.90
17948;DHT22;9099;47.958;11.366;2023-07-16T04:54:11;20.90;99.90
17948;DHT22;9099;47.958;11.366;2023-07-16T04:56:39;20.80;99.90
17948;DHT22;9099;47.958;11.366;2023-07-16T04:59:06;20.60;99.90
17948;DHT22;9099;47.958;11.366;2023-07-16T05:01:32;20.60;99.90
17948;DHT22;9099;47.958;11.366;2023-07-16T05:03:59;20.70;99.90
17948;DHT22;9099;47.958;11.366;2023-07-16T05:06:26;20.70;99.90
17948;DHT22;9099;47.958;11.366;2023-07-16T05:08:53;20.80;99.90
17948;DHT22;9099;47.958;11.366;2023-07-16T05:11:20;20.80;99.90
17948;DHT22;9099;47.958;11.366;2023-07-16T05:13:48;20.80;99.90
17948;DHT22;9099;47.958;11.366;2023-07-16T05:16:15;20.90;99.90
17948;DHT22;9099;47.958;11.366;2023-07-16T05:18:41;20.90;99.90
17948;DHT22;9099;47.958;11.366;2023-07-16T05:21:08;21.00;99.90
17948;DHT22;9099;47.958;11.366;2023-07-16T05:23:35;21.00;99.90
17948;DHT22;9099;47.958;11.366;2023-07-16T05:26:02;21.00;99.90
17948;DHT22;9099;47.958;11.366;2023-07-16T05:28:29;21.10;99.90
17948;DHT22;9099;47.958;11.366;2023-07-16T05:31:01;21.20;99.90
17948;DHT22;9099;47.958;11.366;2023-07-16T05:33:28;21.20;99.90
17948;DHT22;9099;47.958;11.366;2023-07-16T05:35:55;21.30;99.90
17948;DHT22;9099;47.958;11.366;2023-07-16T05:38:22;21.30;99.90
17948;DHT22;9099;47.958;11.366;2023-07-16T05:40:49;21.50;99.90
17948;DHT22;9099;47.958;11.366;2023-07-16T05:43:16;21.70;99.90
17948;DHT22;9099;47.958;11.366;2023-07-16T05:45:43;21.90;99.90
17948;DHT22;9099;47.958;11.366;2023-07-16T05:48:11;21.90;99.90
17948;DHT22;9099;47.958;11.366;2023-07-16T05:50:38;21.90;99.90
17948;DHT22;9099;47.958;11.366;2023-07-16T05:53:04;21.90;99.90
17948;DHT22;9099;47.958;11.366;2023-07-16T05:55:31;21.70;99.90
17948;DHT22;9099;47.958;11.366;2023-07-16T05:57:58;21.70;99.90
17948;DHT22;9099;47.958;11.366;2023-07-16T06:00:25;21.60;99.90
17948;DHT22;9099;47.958;11.366;2023-07-16T06:02:52;21.60;99.90
17948;DHT22;9099;47.958;11.366;2023-07-16T06:05:20;21.60;99.90
17948;DHT22;9099;47.958;11.366;2023-07-16T06:07:46;21.50;99.90
17948;DHT22;9099;47.958;11.366;2023-07-16T06:10:13;21.60;99.90
17948;DHT22;9099;47.958;11.366;2023-07-16T06:12:40;21.50;99.90
17948;DHT22;9099;47.958;11.366;2023-07-16T06:15:08;21.50;99.90
17948;DHT22;9099;47.958;11.366;2023-07-16T06:17:35;21.60;99.90
17948;DHT22;9099;47.958;11.366;2023-07-16T06:20:02;21.70;99.90
17948;DHT22;9099;47.958;11.366;2023-07-16T06:22:31;21.70;99.90
17948;DHT22;9099;47.958;11.366;2023-07-16T06:24:57;21.60;99.90
17948;DHT22;9099;47.958;11.366;2023-07-16T06:27:24;21.50;99.90
17948;DHT22;9099;47.958;11.366;2023-07-16T06:29:51;21.50;99.90
17948;DHT22;9099;47.958;11.366;2023-07-16T06:32:18;21.50;99.90
17948;DHT22;9099;47.958;11.366;2023-07-16T06:34:46;21.60;99.90
17948;DHT22;9099;47.958;11.366;2023-07-16T06:37:12;21.60;99.90
17948;DHT22;9099;47.958;11.366;2023-07-16T06:39:40;21.70;99.90
17948;DHT22;9099;47.958;11.366;2023-07-16T06:42:07;21.80;99.90
17948;DHT22;9099;47.958;11.366;2023-07-16T06:44:34;21.90;99.90
17948;DHT22;9099;47.958;11.366;2023-07-16T06:47:01;21.90;99.90
17948;DHT22;9099;47.958;11.366;2023-07-16T06:49:29;21.90;99.90
17948;DHT22;9099;47.958;11.366;2023-07-16T06:51:56;22.00;99.90
17948;DHT22;9099;47.958;11.366;2023-07-16T06:54:22;22.30;99.90
17948;DHT22;9099;47.958;11.366;2023-07-16T06:56:51;22.40;99.90
17948;DHT22;9099;47.958;11.366;2023-07-16T06:59:17;22.40;99.90
17948;DHT22;9099;47.958;11.366;2023-07-16T07:01:44;22.40;99.90
17948;DHT22;9099;47.958;11.366;2023-07-16T07:04:11;22.30;99.90
17948;DHT22;9099;47.958;11.366;2023-07-16T07:06:38;22.40;99.90
17948;DHT22;9099;47.958;11.366;2023-07-16T07:09:05;22.50;99.90
17948;DHT22;9099;47.958;11.366;2023-07-16T07:11:31;22.60;99.90
17948;DHT22;9099;47.958;11.366;2023-07-16T07:14:00;22.70;99.90
17948;DHT22;9099;47.958;11.366;2023-07-16T07:16:26;22.80;99.90
17948;DHT22;9099;47.958;11.366;2023-07-16T07:18:53;22.80;99.90
17948;DHT22;9099;47.958;11.366;2023-07-16T07:21:20;22.80;99.90
17948;DHT22;9099;47.958;11.366;2023-07-16T07:23:47;22.70;99.90
17948;DHT22;9099;47.958;11.366;2023-07-16T07:26:14;22.50;99.90
17948;DHT22;9099;47.958;11.366;2023-07-16T07:28:40;22.50;99.90
17948;DHT22;9099;47.958;11.366;2023-07-16T07:31:09;22.50;99.90
17948;DHT22;9099;47.958;11.366;2023-07-16T07:33:35;22.70;99.90
17948;DHT22;9099;47.958;11.366;2023-07-16T07:36:03;22.80;99.90
17948;DHT22;9099;47.958;11.366;2023-07-16T07:38:30;22.80;99.90
17948;DHT22;9099;47.958;11.366;2023-07-16T07:40:56;23.00;99.90
17948;DHT22;9099;47.958;11.366;2023-07-16T07:43:23;23.00;99.90
17948;DHT22;9099;47.958;11.366;2023-07-16T07:45:50;23.20;99.90
17948;DHT22;9099;47.958;11.366;2023-07-16T07:48:18;23.30;99.90
17948;DHT22;9099;47.958;11.366;2023-07-16T07:50:47;23.40;99.90
17948;DHT22;9099;47.958;11.366;2023-07-16T07:53:14;23.60;99.90
17948;DHT22;9099;47.958;11.366;2023-07-16T07:55:43;23.70;99.90
17948;DHT22;9099;47.958;11.366;2023-07-16T07:58:10;23.80;99.90
17948;DHT22;9099;47.958;11.366;2023-07-16T08:00:37;24.00;99.90
17948;DHT22;9099;47.958;11.366;2023-07-16T08:03:04;24.20;99.90
17948;DHT22;9099;47.958;11.366;2023-07-16T08:05:32;24.10;99.90
17948;DHT22;9099;47.958;11.366;2023-07-16T08:07:59;24.10;99.90
17948;DHT22;9099;47.958;11.366;2023-07-16T08:10:26;23.90;99.90
17948;DHT22;9099;47.958;11.366;2023-07-16T08:12:53;24.00;99.90
17948;DHT22;9099;47.958;11.366;2023-07-16T08:15:20;24.20;99.90
17948;DHT22;9099;47.958;11.366;2023-07-16T08:17:47;24.20;99.90
17948;DHT22;9099;47.958;11.366;2023-07-16T08:20:14;24.40;99.90
17948;DHT22;9099;47.958;11.366;2023-07-16T08:22:42;24.60;99.90
17948;DHT22;9099;47.958;11.366;2023-07-16T08:25:09;24.80;99.90
17948;DHT22;9099;47.958;11.366;2023-07-16T08:27:37;25.00;99.90
17948;DHT22;9099;47.958;11.366;2023-07-16T08:30:05;25.20;99.90
17948;DHT22;9099;47.958;11.366;2023-07-16T08:32:32;25.30;99.90
17948;DHT22;9099;47.958;11.366;2023-07-16T08:34:59;25.60;99.90
17948;DHT22;9099;47.958;11.366;2023-07-16T08:37:25;25.70;99.90
17948;DHT22;9099;47.958;11.366;2023-07-16T08:39:54;25.90;99.90
17948;DHT22;9099;47.958;11.366;2023-07-16T08:42:20;26.10;99.90
17948;DHT22;9099;47.958;11.366;2023-07-16T08:44:49;26.10;99.90
17948;DHT22;9099;47.958;11.366;2023-07-16T08:47:16;26.10;99.90
17948;DHT22;9099;47.958;11.366;2023-07-16T08:49:53;25.90;99.90
17948;DHT22;9099;47.958;11.366;2023-07-16T08:52:20;25.80;99.90
17948;DHT22;9099;47.958;11.366;2023-07-16T08:54:47;25.70;99.90
17948;DHT22;9099;47.958;11.366;2023-07-16T08:57:15;25.80;99.90
17948;DHT22;9099;47.958;11.366;2023-07-16T08:59:43;26.00;99.90
17948;DHT22;9099;47.958;11.366;2023-07-16T09:02:11;26.10;99.90
17948;DHT22;9099;47.958;11.366;2023-07-16T09:04:39;26.20;99.90
17948;DHT22;9099;47.958;11.366;2023-07-16T09:07:06;26.10;99.90
17948;DHT22;9099;47.958;11.366;2023-07-16T09:09:33;26.40;99.90
17948;DHT22;9099;47.958;11.366;2023-07-16T09:11:59;27.00;99.90
17948;DHT22;9099;47.958;11.366;2023-07-16T09:14:28;27.10;99.90
17948;DHT22;9099;47.958;11.366;2023-07-16T09:16:54;26.90;99.90
17948;DHT22;9099;47.958;11.366;2023-07-16T09:19:22;26.60;99.90
17948;DHT22;9099;47.958;11.366;2023-07-16T09:21:49;26.70;99.90
17948;DHT22;9099;47.958;11.366;2023-07-16T09:24:17;27.00;99.90
17948;DHT22;9099;47.958;11.366;2023-07-16T09:26:49;27.00;99.90
17948;DHT22;9099;47.958;11.366;2023-07-16T09:29:17;27.10;99.90
17948;DHT22;9099;47.958;11.366;2023-07-16T09:31:55;27.20;99.90
17948;DHT22;9099;47.958;11.366;2023-07-16T09:34:22;27.40;99.90
17948;DHT22;9099;47.958;11.366;2023-07-16T09:36:49;27.60;99.90
17948;DHT22;9099;47.958;11.366;2023-07-16T09:39:17;27.80;99.90
17948;DHT22;9099;47.958;11.366;2023-07-16T09:41:45;27.90;99.90
17948;DHT22;9099;47.958;11.366;2023-07-16T09:44:13;28.40;99.90
17948;DHT22;9099;47.958;11.366;2023-07-16T09:46:40;28.40;99.90
17948;DHT22;9099;47.958;11.366;2023-07-16T09:49:09;27.90;99.90
17948;DHT22;9099;47.958;11.366;2023-07-16T09:51:37;28.00;99.90
17948;DHT22;9099;47.958;11.366;2023-07-16T09:54:04;28.60;99.90
17948;DHT22;9099;47.958;11.366;2023-07-16T09:56:35;28.70;99.90
17948;DHT22;9099;47.958;11.366;2023-07-16T09:59:05;28.80;99.90
17948;DHT22;9099;47.958;11.366;2023-07-16T10:01:36;28.40;99.90
17948;DHT22;9099;47.958;11.366;2023-07-16T10:04:12;28.30;99.90
17948;DHT22;9099;47.958;11.366;2023-07-16T10:06:49;28.40;99.90
17948;DHT22;9099;47.958;11.366;2023-07-16T10:09:31;28.60;99.90
17948;DHT22;9099;47.958;11.366;2023-07-16T10:12:08;28.90;99.90
17948;DHT22;9099;47.958;11.366;2023-07-16T10:14:39;29.50;99.90
17948;DHT22;9099;47.958;11.366;2023-07-16T10:17:06;29.90;99.90
17948;DHT22;9099;47.958;11.366;2023-07-16T10:19:46;30.50;99.90
17948;DHT22;9099;47.958;11.366;2023-07-16T10:22:13;30.80;99.90
17948;DHT22;9099;47.958;11.366;2023-07-16T10:24:40;30.80;99.90
17948;DHT22;9099;47.958;11.366;2023-07-16T10:27:07;31.10;99.90
17948;DHT22;9099;47.958;11.366;2023-07-16T10:29:34;31.50;99.90
17948;DHT22;9099;47.958;11.366;2023-07-16T10:32:02;31.70;99.90
17948;DHT22;9099;47.958;11.366;2023-07-16T10:34:29;32.10;99.90
17948;DHT22;9099;47.958;11.366;2023-07-16T10:36:57;32.40;99.90
17948;DHT22;9099;47.958;11.366;2023-07-16T10:39:24;32.60;99.90
17948;DHT22;9099;47.958;11.366;2023-07-16T10:41:51;32.60;99.90
17948;DHT22;9099;47.958;11.366;2023-07-16T10:44:20;32.50;99.90
17948;DHT22;9099;47.958;11.366;2023-07-16T10:46:48;32.10;99.90
17948;DHT22;9099;47.958;11.366;2023-07-16T10:49:15;31.60;99.90
17948;DHT22;9099;47.958;11.366;2023-07-16T10:51:41;32.10;99.90
17948;DHT22;9099;47.958;11.366;2023-07-16T10:54:10;32.40;99.90
17948;DHT22;9099;47.958;11.366;2023-07-16T10:56:36;32.70;99.90
17948;DHT22;9099;47.958;11.366;2023-07-16T10:59:03;33.10;99.90
17948;DHT22;9099;47.958;11.366;2023-07-16T11:01:33;33.30;99.90
17948;DHT22;9099;47.958;11.366;2023-07-16T11:04:00;33.60;99.90
17948;DHT22;9099;47.958;11.366;2023-07-16T11:06:27;33.70;99.90
17948;DHT22;9099;47.958;11.366;2023-07-16T11:08:54;33.70;99.90
17948;DHT22;9099;47.958;11.366;2023-07-16T11:11:29;33.90;99.90
17948;DHT22;9099;47.958;11.366;2023-07-16T11:13:56;34.20;99.90
17948;DHT22;9099;47.958;11.366;2023-07-16T11:16:23;34.40;99.90
17948;DHT22;9099;47.958;11.366;2023-07-16T11:18:50;34.40;99.90
17948;DHT22;9099;47.958;11.366;2023-07-16T11:21:18;34.40;99.90
17948;DHT22;9099;47.958;11.366;2023-07-16T11:23:46;34.10;99.90
17948;DHT22;9099;47.958;11.366;2023-07-16T11:26:14;34.00;99.90
17948;DHT22;9099;47.958;11.366;2023-07-16T11:28:42;34.40;99.90
17948;DHT22;9099;47.958;11.366;2023-07-16T11:31:14;34.60;99.90
17948;DHT22;9099;47.958;11.366;2023-07-16T11:33:42;34.90;99.90
17948;DHT22;9099;47.958;11.366;2023-07-16T11:36:09;34.80;99.90
17948;DHT22;9099;47.958;11.366;2023-07-16T11:38:37;34.40;99.90
17948;DHT22;9099;47.958;11.366;2023-07-16T11:41:04;34.10;99.90
17948;DHT22;9099;47.958;11.366;2023-07-16T11:43:34;33.60;99.90
17948;DHT22;9099;47.958;11.366;2023-07-16T11:46:05;33.20;99.90
17948;DHT22;9099;47.958;11.366;2023-07-16T11:48:32;33.20;99.90
17948;DHT22;9099;47.958;11.366;2023-07-16T11:50:59;33.00;99.90
17948;DHT22;9099;47.958;11.366;2023-07-16T11:53:25;32.80;99.90
17948;DHT22;9099;47.958;11.366;2023-07-16T11:55:52;32.50;99.90
17948;DHT22;9099;47.958;11.366;2023-07-16T11:58:19;32.60;99.90
17948;DHT22;9099;47.958;11.366;2023-07-16T12:00:46;32.70;99.90
17948;DHT22;9099;47.958;11.366;2023-07-16T12:03:14;32.60;99.90
17948;DHT22;9099;47.958;11.366;2023-07-16T12:05:41;32.70;99.90
17948;DHT22;9099;47.958;11.366;2023-07-16T12:08:08;33.00;99.90
17948;DHT22;9099;47.958;11.366;2023-07-16T12:10:39;33.30;99.90
17948;DHT22;9099;47.958;11.366;2023-07-16T12:13:06;32.50;99.90
17948;DHT22;9099;47.958;11.366;2023-07-16T12:15:33;32.30;99.90
17948;DHT22;9099;47.958;11.366;2023-07-16T12:18:00;32.40;99.90
17948;DHT22;9099;47.958;11.366;2023-07-16T12:20:28;32.40;99.90
17948;DHT22;9099;47.958;11.366;2023-07-16T12:22:55;32.50;99.90
17948;DHT22;9099;47.958;11.366;2023-07-16T12:25:22;32.60;99.90
17948;DHT22;9099;47.958;11.366;2023-07-16T12:27:49;32.60;99.90
17948;DHT22;9099;47.958;11.366;2023-07-16T12:30:16;32.40;99.90
17948;DHT22;9099;47.958;11.366;2023-07-16T12:32:42;32.20;99.90
17948;DHT22;9099;47.958;11.366;2023-07-16T12:35:09;32.50;99.90
17948;DHT22;9099;47.958;11.366;2023-07-16T12:37:37;32.70;99.90
17948;DHT22;9099;47.958;11.366;2023-07-16T12:40:06;32.70;99.90
17948;DHT22;9099;47.958;11.366;2023-07-16T12:42:33;32.60;99.90
17948;DHT22;9099;47.958;11.366;2023-07-16T12:45:00;32.40;99.90
17948;DHT22;9099;47.958;11.366;2023-07-16T12:47:27;32.10;99.90
17948;DHT22;9099;47.958;11.366;2023-07-16T12:49:54;31.70;99.90
17948;DHT22;9099;47.958;11.366;2023-07-16T12:52:21;31.50;99.90
17948;DHT22;9099;47.958;11.366;2023-07-16T12:54:49;31.30;99.90
17948;DHT22;9099;47.958;11.366;2023-07-16T12:57:17;31.20;99.90
17948;DHT22;9099;47.958;11.366;2023-07-16T12:59:43;31.00;99.90
17948;DHT22;9099;47.958;11.366;2023-07-16T13:02:10;30.90;99.90
17948;DHT22;9099;47.958;11.366;2023-07-16T13:04:37;30.80;99.90
17948;DHT22;9099;47.958;11.366;2023-07-16T13:07:04;30.50;99.90
17948;DHT22;9099;47.958;11.366;2023-07-16T13:09:31;30.30;99.90
17948;DHT22;9099;47.958;11.366;2023-07-16T13:11:59;30.50;99.90
17948;DHT22;9099;47.958;11.366;2023-07-16T13:14:26;30.30;99.90
17948;DHT22;9099;47.958;11.366;2023-07-16T13:16:53;30.30;99.90
17948;DHT22;9099;47.958;11.366;2023-07-16T13:19:20;30.20;99.90
17948;DHT22;9099;47.958;11.366;2023-07-16T13:21:47;30.20;99.90
17948;DHT22;9099;47.958;11.366;2023-07-16T13:24:13;30.20;99.90
17948;DHT22;9099;47.958;11.366;2023-07-16T13:26:40;30.10;99.90
17948;DHT22;9099;47.958;11.366;2023-07-16T13:29:08;30.00;99.90
17948;DHT22;9099;47.958;11.366;2023-07-16T13:31:35;30.00;99.90
17948;DHT22;9099;47.958;11.366;2023-07-16T13:34:02;29.70;99.90
17948;DHT22;9099;47.958;11.366;2023-07-16T13:36:29;29.60;99.90
17948;DHT22;9099;47.958;11.366;2023-07-16T13:38:56;29.60;99.90
17948;DHT22;9099;47.958;11.366;2023-07-16T13:41:23;29.70;99.90
17948;DHT22;9099;47.958;11.366;2023-07-16T13:43:49;29.70;99.90
17948;DHT22;9099;47.958;11.366;2023-07-16T13:46:18;29.40;99.90
17948;DHT22;9099;47.958;11.366;2023-07-16T13:48:44;29.30;99.90
17948;DHT22;9099;47.958;11.366;2023-07-16T13:51:11;29.30;99.90
17948;DHT22;9099;47.958;11.366;2023-07-16T13:53:38;29.10;99.90
17948;DHT22;9099;47.958;11.366;2023-07-16T13:56:06;29.10;99.90
17948;DHT22;9099;47.958;11.366;2023-07-16T13:58:33;29.00;99.90
17948;DHT22;9099;47.958;11.366;2023-07-16T14:01:00;29.00;99.90
17948;DHT22;9099;47.958;11.366;2023-07-16T14:03:28;29.00;99.90
17948;DHT22;9099;47.958;11.366;2023-07-16T14:05:55;28.90;99.90
17948;DHT22;9099;47.958;11.366;2023-07-16T14:08:22;28.90;99.90
17948;DHT22;9099;47.958;11.366;2023-07-16T14:10:49;29.00;99.90
17948;DHT22;9099;47.958;11.366;2023-07-16T14:13:16;29.00;99.90
17948;DHT22;9099;47.958;11.366;2023-07-16T14:15:43;29.20;99.90
17948;DHT22;9099;47.958;11.366;2023-07-16T14:18:09;29.10;99.90
17948;DHT22;9099;47.958;11.366;2023-07-16T14:20:38;28.90;99.90
17948;DHT22;9099;47.958;11.366;2023-07-16T14:23:04;28.80;99.90
17948;DHT22;9099;47.958;11.366;2023-07-16T14:25:31;28.80;99.90
17948;DHT22;9099;47.958;11.366;2023-07-16T14:27:58;28.70;99.90
17948;DHT22;9099;47.958;11.366;2023-07-16T14:30:25;28.60;99.90
17948;DHT22;9099;47.958;11.366;2023-07-16T14:32:52;28.50;99.90
17948;DHT22;9099;47.958;11.366;2023-07-16T14:35:19;28.50;99.90
17948;DHT22;9099;47.958;11.366;2023-07-16T14:37:47;28.50;99.90
17948;DHT22;9099;47.958;11.366;2023-07-16T14:40:14;28.30;99.90
17948;DHT22;9099;47.958;11.366;2023-07-16T14:42:41;28.30;99.90
17948;DHT22;9099;47.958;11.366;2023-07-16T14:45:09;28.40;99.90
17948;DHT22;9099;47.958;11.366;2023-07-16T14:47:36;28.70;99.90
17948;DHT22;9099;47.958;11.366;2023-07-16T14:50:03;28.80;99.90
17948;DHT22;9099;47.958;11.366;2023-07-16T14:52:31;28.70;99.90
17948;DHT22;9099;47.958;11.366;2023-07-16T14:54:59;28.60;99.90
17948;DHT22;9099;47.958;11.366;2023-07-16T14:57:26;28.70;99.90
17948;DHT22;9099;47.958;11.366;2023-07-16T14:59:52;29.10;99.90
17948;DHT22;9099;47.958;11.366;2023-07-16T15:02:19;29.30;99.90
17948;DHT22;9099;47.958;11.366;2023-07-16T15:04:46;29.10;99.90
17948;DHT22;9099;47.958;11.366;2023-07-16T15:07:13;29.00;99.90
17948;DHT22;9099;47.958;11.366;2023-07-16T15:09:40;29.00;99.90
17948;DHT22;9099;47.958;11.366;2023-07-16T15:12:08;29.00;99.90
17948;DHT22;9099;47.958;11.366;2023-07-16T15:14:35;28.80;99.90
17948;DHT22;9099;47.958;11.366;2023-07-16T15:17:04;28.80;99.90
17948;DHT22;9099;47.958;11.366;2023-07-16T15:19:32;28.50;99.90
17948;DHT22;9099;47.958;11.366;2023-07-16T15:21:58;28.30;99.90
17948;DHT22;9099;47.958;11.366;2023-07-16T15:24:25;28.20;99.90
17948;DHT22;9099;47.958;11.366;2023-07-16T15:26:52;27.90;99.90
17948;DHT22;9099;47.958;11.366;2023-07-16T15:29:20;27.90;99.90
17948;DHT22;9099;47.958;11.366;2023-07-16T15:31:47;27.80;99.90